sensor_id;sensor_type;location;lat;lon;timestamp;temperature;humidity
70366;DHT22;57787;48.216;12.396;2023-08-20T00:01:42;19.50;83.00
70366;DHT22;57787;48.216;12.396;2023-08-20T00:04:09;19.50;82.90
70366;DHT22;57787;48.216;12.396;2023-08-20T00:06:36;19.50;83.00
70366;DHT22;57787;48.216;12.396;2023-08-20T00:09:03;19.40;83.00
70366;DHT22;57787;48.216;12.396;2023-08-20T00:11:30;19.40;83.10
70366;DHT22;57787;48.216;12.396;2023-08-20T00:13:57;19.30;83.50
70366;DHT22;57787;48.216;12.396;2023-08-20T00:16:24;19.30;83.40
70366;DHT22;57787;48.216;12.396;2023-08-20T00:18:51;19.30;83.30
70366;DHT22;57787;48.216;12.396;2023-08-20T00:21:18;19.30;83.70
70366;DHT22;57787;48.216;12.396;2023-08-20T00:23:45;19.30;83.80
70366;DHT22;57787;48.216;12.396;2023-08-20T00:26:12;19.30;83.70
70366;DHT22;57787;48.216;12.396;2023-08-20T00:28:39;19.40;84.10
70366;DHT22;57787;48.216;12.396;2023-08-20T00:31:09;19.40;83.60
70366;DHT22;57787;48.216;12.396;2023-08-20T00:33:36;19.40;83.80
70366;DHT22;57787;48.216;12.396;2023-08-20T00:36:03;19.40;83.80
70366;DHT22;57787;48.216;12.396;2023-08-20T00:38:30;19.40;84.10
70366;DHT22;57787;48.216;12.396;2023-08-20T00:40:57;19.40;84.10
70366;DHT22;57787;48.216;12.396;2023-08-20T00:43:24;19.40;84.40
70366;DHT22;57787;48.216;12.396;2023-08-20T00:46:02;19.30;83.90
70366;DHT22;57787;48.216;12.396;2023-08-20T00:48:32;19.30;84.10
70366;DHT22;57787;48.216;12.396;2023-08-20T00:51:01;19.30;84.20
70366;DHT22;57787;48.216;12.396;2023-08-20T00:53:29;19.30;83.90
70366;DHT22;57787;48.216;12.396;2023-08-20T00:55:56;19.30;84.30
70366;DHT22;57787;48.216;12.396;2023-08-20T00:58:23;19.30;84.50
70366;DHT22;57787;48.216;12.396;2023-08-20T01:00:50;19.30;84.70
70366;DHT22;57787;48.216;12.396;2023-08-20T01:03:16;19.30;84.60
70366;DHT22;57787;48.216;12.396;2023-08-20T01:05:46;19.30;84.30
70366;DHT22;57787;48.216;12.396;2023-08-20T01:08:29;19.30;84.20
70366;DHT22;57787;48.216;12.396;2023-08-20T01:11:00;19.40;84.30
70366;DHT22;57787;48.216;12.396;2023-08-20T01:13:29;19.40;84.00
70366;DHT22;57787;48.216;12.396;2023-08-20T01:15:58;19.40;84.30
70366;DHT22;57787;48.216;12.396;2023-08-20T01:18:25;19.40;84.60
70366;DHT22;57787;48.216;12.396;2023-08-20T01:20:53;19.40;84.30
70366;DHT22;57787;48.216;12.396;2023-08-20T01:23:36;19.40;84.30
70366;DHT22;57787;48.216;12.396;2023-08-20T01:28:32;19.40;83.80
70366;DHT22;57787;48.216;12.396;2023-08-20T01:30:59;19.40;84.20
70366;DHT22;57787;48.216;12.396;2023-08-20T01:33:27;19.40;84.30
70366;DHT22;57787;48.216;12.396;2023-08-20T01:35:54;19.50;84.00
70366;DHT22;57787;48.216;12.396;2023-08-20T01:38:21;19.50;84.00
70366;DHT22;57787;48.216;12.396;2023-08-20T01:40:49;19.40;84.00
70366;DHT22;57787;48.216;12.396;2023-08-20T01:43:15;19.50;83.90
70366;DHT22;57787;48.216;12.396;2023-08-20T01:45:42;19.50;84.00
70366;DHT22;57787;48.216;12.396;2023-08-20T01:48:09;19.40;84.10
70366;DHT22;57787;48.216;12.396;2023-08-20T01:50:36;19.40;84.00
70366;DHT22;57787;48.216;12.396;2023-08-20T01:53:03;19.40;84.00
70366;DHT22;57787;48.216;12.396;2023-08-20T01:55:30;19.30;84.00
70366;DHT22;57787;48.216;12.396;2023-08-20T01:57:58;19.30;84.30
70366;DHT22;57787;48.216;12.396;2023-08-20T02:00:25;19.20;84.50
70366;DHT22;57787;48.216;12.396;2023-08-20T02:02:52;19.10;84.30
70366;DHT22;57787;48.216;12.396;2023-08-20T02:05:19;19.10;84.40
70366;DHT22;57787;48.216;12.396;2023-08-20T02:07:48;19.10;85.10
70366;DHT22;57787;48.216;12.396;2023-08-20T02:10:15;19.00;84.80
70366;DHT22;57787;48.216;12.396;2023-08-20T02:12:42;19.00;84.90
70366;DHT22;57787;48.216;12.396;2023-08-20T02:15:09;19.00;85.10
70366;DHT22;57787;48.216;12.396;2023-08-20T02:17:37;19.00;84.80
70366;DHT22;57787;48.216;12.396;2023-08-20T02:20:04;19.00;84.90
70366;DHT22;57787;48.216;12.396;2023-08-20T02:22:32;19.00;85.10
70366;DHT22;57787;48.216;12.396;2023-08-20T02:25:01;19.00;84.90
70366;DHT22;57787;48.216;12.396;2023-08-20T02:27:28;19.00;85.10
70366;DHT22;57787;48.216;12.396;2023-08-20T02:29:55;19.00;85.30
70366;DHT22;57787;48.216;12.396;2023-08-20T02:32:24;19.00;85.10
70366;DHT22;57787;48.216;12.396;2023-08-20T02:34:51;19.00;85.00
70366;DHT22;57787;48.216;12.396;2023-08-20T02:37:18;19.00;84.80
70366;DHT22;57787;48.216;12.396;2023-08-20T02:39:45;19.00;84.90
70366;DHT22;57787;48.216;12.396;2023-08-20T02:42:11;18.90;85.00
70366;DHT22;57787;48.216;12.396;2023-08-20T02:44:38;18.90;85.00
70366;DHT22;57787;48.216;12.396;2023-08-20T02:47:05;18.80;85.20
70366;DHT22;57787;48.216;12.396;2023-08-20T02:49:32;18.80;85.20
70366;DHT22;57787;48.216;12.396;2023-08-20T02:52:01;18.70;85.20
70366;DHT22;57787;48.216;12.396;2023-08-20T02:54:29;18.70;85.30
70366;DHT22;57787;48.216;12.396;2023-08-20T02:56:59;18.60;85.60
70366;DHT22;57787;48.216;12.396;2023-08-20T02:59:26;18.60;86.10
70366;DHT22;57787;48.216;12.396;2023-08-20T03:01:53;18.50;86.10
70366;DHT22;57787;48.216;12.396;2023-08-20T03:04:20;18.50;86.40
70366;DHT22;57787;48.216;12.396;2023-08-20T03:06:47;18.40;86.60
70366;DHT22;57787;48.216;12.396;2023-08-20T03:09:14;18.40;86.60
70366;DHT22;57787;48.216;12.396;2023-08-20T03:11:41;18.30;86.50
70366;DHT22;57787;48.216;12.396;2023-08-20T03:14:08;18.30;86.50
70366;DHT22;57787;48.216;12.396;2023-08-20T03:16:35;18.30;86.80
70366;DHT22;57787;48.216;12.396;2023-08-20T03:19:03;18.30;86.90
70366;DHT22;57787;48.216;12.396;2023-08-20T03:21:30;18.30;86.90
70366;DHT22;57787;48.216;12.396;2023-08-20T03:23:57;18.20;87.00
70366;DHT22;57787;48.216;12.396;2023-08-20T03:26:24;18.20;86.90
70366;DHT22;57787;48.216;12.396;2023-08-20T03:28:55;18.20;86.90
70366;DHT22;57787;48.216;12.396;2023-08-20T03:31:23;18.10;86.90
70366;DHT22;57787;48.216;12.396;2023-08-20T03:33:50;18.00;86.90
70366;DHT22;57787;48.216;12.396;2023-08-20T03:36:17;18.00;87.00
70366;DHT22;57787;48.216;12.396;2023-08-20T03:38:44;18.00;87.10
70366;DHT22;57787;48.216;12.396;2023-08-20T03:41:12;18.00;87.10
70366;DHT22;57787;48.216;12.396;2023-08-20T03:43:39;18.00;87.40
70366;DHT22;57787;48.216;12.396;2023-08-20T03:46:06;18.00;87.20
70366;DHT22;57787;48.216;12.396;2023-08-20T03:48:33;17.90;87.10
70366;DHT22;57787;48.216;12.396;2023-08-20T03:51:01;17.90;87.60
70366;DHT22;57787;48.216;12.396;2023-08-20T03:53:28;17.90;87.60
70366;DHT22;57787;48.216;12.396;2023-08-20T03:55:54;17.90;87.40
70366;DHT22;57787;48.216;12.396;2023-08-20T03:58:23;17.80;87.50
70366;DHT22;57787;48.216;12.396;2023-08-20T04:00:51;17.80;87.20
70366;DHT22;57787;48.216;12.396;2023-08-20T04:03:17;17.80;87.40
70366;DHT22;57787;48.216;12.396;2023-08-20T04:05:46;17.80;87.70
70366;DHT22;57787;48.216;12.396;2023-08-20T04:08:13;17.80;87.60
70366;DHT22;57787;48.216;12.396;2023-08-20T04:10:43;17.80;87.80
70366;DHT22;57787;48.216;12.396;2023-08-20T04:13:11;17.80;87.50
70366;DHT22;57787;48.216;12.396;2023-08-20T04:15:50;17.80;87.30
70366;DHT22;57787;48.216;12.396;2023-08-20T04:18:18;17.80;87.20
70366;DHT22;57787;48.216;12.396;2023-08-20T04:20:45;17.80;87.10
70366;DHT22;57787;48.216;12.396;2023-08-20T04:23:11;17.90;87.10
70366;DHT22;57787;48.216;12.396;2023-08-20T04:25:38;17.90;87.00
70366;DHT22;57787;48.216;12.396;2023-08-20T04:28:05;17.90;86.90
70366;DHT22;57787;48.216;12.396;2023-08-20T04:30:32;18.00;87.00
70366;DHT22;57787;48.216;12.396;2023-08-20T04:33:00;18.00;86.90
70366;DHT22;57787;48.216;12.396;2023-08-20T04:35:27;18.20;87.30
70366;DHT22;57787;48.216;12.396;2023-08-20T04:37:55;18.20;86.80
70366;DHT22;57787;48.216;12.396;2023-08-20T04:40:22;18.30;86.20
70366;DHT22;57787;48.216;12.396;2023-08-20T04:42:50;18.40;86.00
70366;DHT22;57787;48.216;12.396;2023-08-20T04:45:17;18.60;85.80
70366;DHT22;57787;48.216;12.396;2023-08-20T04:47:46;18.80;85.10
70366;DHT22;57787;48.216;12.396;2023-08-20T04:50:13;18.90;85.10
70366;DHT22;57787;48.216;12.396;2023-08-20T04:52:45;19.00;85.00
70366;DHT22;57787;48.216;12.396;2023-08-20T04:55:12;19.20;84.70
70366;DHT22;57787;48.216;12.396;2023-08-20T04:57:44;19.30;84.30
70366;DHT22;57787;48.216;12.396;2023-08-20T05:00:11;19.50;83.50
70366;DHT22;57787;48.216;12.396;2023-08-20T05:02:38;19.70;83.10
70366;DHT22;57787;48.216;12.396;2023-08-20T05:05:06;19.90;83.10
70366;DHT22;57787;48.216;12.396;2023-08-20T05:07:33;20.10;82.20
70366;DHT22;57787;48.216;12.396;2023-08-20T05:10:00;20.20;82.00
70366;DHT22;57787;48.216;12.396;2023-08-20T05:12:27;20.30;81.10
70366;DHT22;57787;48.216;12.396;2023-08-20T05:14:54;20.40;80.90
70366;DHT22;57787;48.216;12.396;2023-08-20T05:17:21;20.40;80.20
70366;DHT22;57787;48.216;12.396;2023-08-20T05:19:48;20.50;80.20
70366;DHT22;57787;48.216;12.396;2023-08-20T05:22:15;20.60;80.30
70366;DHT22;57787;48.216;12.396;2023-08-20T05:24:42;20.80;80.10
70366;DHT22;57787;48.216;12.396;2023-08-20T05:29:36;21.20;79.00
70366;DHT22;57787;48.216;12.396;2023-08-20T05:32:03;21.40;78.40
70366;DHT22;57787;48.216;12.396;2023-08-20T05:34:30;21.80;78.20
70366;DHT22;57787;48.216;12.396;2023-08-20T05:39:36;22.30;75.90
70366;DHT22;57787;48.216;12.396;2023-08-20T05:42:04;22.60;75.30
70366;DHT22;57787;48.216;12.396;2023-08-20T05:44:31;22.90;74.30
70366;DHT22;57787;48.216;12.396;2023-08-20T05:47:05;23.20;74.40
70366;DHT22;57787;48.216;12.396;2023-08-20T05:49:33;23.40;71.60
70366;DHT22;57787;48.216;12.396;2023-08-20T05:52:00;23.60;70.70
70366;DHT22;57787;48.216;12.396;2023-08-20T05:54:29;23.90;70.80
70366;DHT22;57787;48.216;12.396;2023-08-20T05:56:57;25.40;65.60
70366;DHT22;57787;48.216;12.396;2023-08-20T05:59:26;27.20;59.30
70366;DHT22;57787;48.216;12.396;2023-08-20T06:01:55;27.70;57.70
70366;DHT22;57787;48.216;12.396;2023-08-20T06:04:22;27.70;57.80
70366;DHT22;57787;48.216;12.396;2023-08-20T06:06:51;27.30;57.20
70366;DHT22;57787;48.216;12.396;2023-08-20T06:09:19;26.80;59.40
70366;DHT22;57787;48.216;12.396;2023-08-20T06:11:46;26.50;60.00
70366;DHT22;57787;48.216;12.396;2023-08-20T06:14:13;26.10;62.00
70366;DHT22;57787;48.216;12.396;2023-08-20T06:16:41;25.80;64.20
70366;DHT22;57787;48.216;12.396;2023-08-20T06:19:07;25.40;63.90
70366;DHT22;57787;48.216;12.396;2023-08-20T06:21:35;25.10;64.80
70366;DHT22;57787;48.216;12.396;2023-08-20T06:24:01;24.60;66.20
70366;DHT22;57787;48.216;12.396;2023-08-20T06:26:29;24.30;67.50
70366;DHT22;57787;48.216;12.396;2023-08-20T06:28:58;24.00;68.20
70366;DHT22;57787;48.216;12.396;2023-08-20T06:31:25;23.80;68.90
70366;DHT22;57787;48.216;12.396;2023-08-20T06:33:52;23.60;70.90
70366;DHT22;57787;48.216;12.396;2023-08-20T06:36:19;23.50;70.60
70366;DHT22;57787;48.216;12.396;2023-08-20T06:38:46;23.70;69.80
70366;DHT22;57787;48.216;12.396;2023-08-20T06:41:14;23.90;70.20
70366;DHT22;57787;48.216;12.396;2023-08-20T06:43:48;24.20;68.60
70366;DHT22;57787;48.216;12.396;2023-08-20T06:46:16;24.40;66.50
70366;DHT22;57787;48.216;12.396;2023-08-20T06:48:42;24.60;66.40
70366;DHT22;57787;48.216;12.396;2023-08-20T06:51:14;25.00;66.30
70366;DHT22;57787;48.216;12.396;2023-08-20T06:53:42;25.20;65.00
70366;DHT22;57787;48.216;12.396;2023-08-20T06:56:08;25.40;63.30
70366;DHT22;57787;48.216;12.396;2023-08-20T06:58:35;25.70;61.70
70366;DHT22;57787;48.216;12.396;2023-08-20T07:01:02;25.90;60.90
70366;DHT22;57787;48.216;12.396;2023-08-20T07:03:37;26.00;60.40
70366;DHT22;57787;48.216;12.396;2023-08-20T07:06:04;26.20;60.40
70366;DHT22;57787;48.216;12.396;2023-08-20T07:08:31;26.40;60.10
70366;DHT22;57787;48.216;12.396;2023-08-20T07:10:58;26.60;59.60
70366;DHT22;57787;48.216;12.396;2023-08-20T07:13:25;26.60;57.70
70366;DHT22;57787;48.216;12.396;2023-08-20T07:15:53;26.60;57.90
70366;DHT22;57787;48.216;12.396;2023-08-20T07:18:21;26.60;56.80
70366;DHT22;57787;48.216;12.396;2023-08-20T07:20:50;26.80;56.80
70366;DHT22;57787;48.216;12.396;2023-08-20T07:23:21;26.90;55.90
70366;DHT22;57787;48.216;12.396;2023-08-20T07:25:52;27.10;56.60
70366;DHT22;57787;48.216;12.396;2023-08-20T07:28:30;27.30;56.10
70366;DHT22;57787;48.216;12.396;2023-08-20T07:31:17;27.30;55.20
70366;DHT22;57787;48.216;12.396;2023-08-20T07:33:47;27.40;54.80
70366;DHT22;57787;48.216;12.396;2023-08-20T07:36:14;27.40;54.40
70366;DHT22;57787;48.216;12.396;2023-08-20T07:38:42;27.40;52.60
70366;DHT22;57787;48.216;12.396;2023-08-20T07:41:11;27.60;55.40
70366;DHT22;57787;48.216;12.396;2023-08-20T07:43:38;27.80;55.00
70366;DHT22;57787;48.216;12.396;2023-08-20T07:46:05;28.00;53.80
70366;DHT22;57787;48.216;12.396;2023-08-20T07:48:32;28.20;53.60
70366;DHT22;57787;48.216;12.396;2023-08-20T07:51:00;28.30;51.50
70366;DHT22;57787;48.216;12.396;2023-08-20T07:53:27;28.40;54.30
70366;DHT22;57787;48.216;12.396;2023-08-20T07:55:59;28.60;52.80
70366;DHT22;57787;48.216;12.396;2023-08-20T08:01:02;28.80;51.30
70366;DHT22;57787;48.216;12.396;2023-08-20T08:03:29;28.80;51.80
70366;DHT22;57787;48.216;12.396;2023-08-20T08:05:57;29.00;50.90
70366;DHT22;57787;48.216;12.396;2023-08-20T08:08:24;29.10;51.10
70366;DHT22;57787;48.216;12.396;2023-08-20T08:13:27;29.40;47.90
70366;DHT22;57787;48.216;12.396;2023-08-20T08:18:38;29.50;50.30
70366;DHT22;57787;48.216;12.396;2023-08-20T08:21:07;29.60;49.70
70366;DHT22;57787;48.216;12.396;2023-08-20T08:23:33;29.80;51.00
70366;DHT22;57787;48.216;12.396;2023-08-20T08:28:34;30.10;47.70
70366;DHT22;57787;48.216;12.396;2023-08-20T08:31:03;29.80;47.60
70366;DHT22;57787;48.216;12.396;2023-08-20T08:33:35;29.90;48.90
70366;DHT22;57787;48.216;12.396;2023-08-20T08:36:04;30.00;48.50
70366;DHT22;57787;48.216;12.396;2023-08-20T08:38:34;30.30;48.30
70366;DHT22;57787;48.216;12.396;2023-08-20T08:41:04;30.30;45.80
70366;DHT22;57787;48.216;12.396;2023-08-20T08:43:35;30.30;46.10
70366;DHT22;57787;48.216;12.396;2023-08-20T08:46:02;30.30;46.20
70366;DHT22;57787;48.216;12.396;2023-08-20T08:48:34;30.40;47.00
70366;DHT22;57787;48.216;12.396;2023-08-20T08:51:02;30.60;47.70
70366;DHT22;57787;48.216;12.396;2023-08-20T08:53:31;30.70;46.90
70366;DHT22;57787;48.216;12.396;2023-08-20T08:55:59;30.70;45.10
70366;DHT22;57787;48.216;12.396;2023-08-20T08:58:26;30.70;46.00
70366;DHT22;57787;48.216;12.396;2023-08-20T09:00:55;30.90;47.80
70366;DHT22;57787;48.216;12.396;2023-08-20T09:03:22;31.20;48.70
70366;DHT22;57787;48.216;12.396;2023-08-20T09:05:54;31.30;47.50
70366;DHT22;57787;48.216;12.396;2023-08-20T09:08:24;31.60;46.10
70366;DHT22;57787;48.216;12.396;2023-08-20T09:10:54;31.60;44.60
70366;DHT22;57787;48.216;12.396;2023-08-20T09:13:34;31.70;45.60
70366;DHT22;57787;48.216;12.396;2023-08-20T09:16:05;31.80;45.60
70366;DHT22;57787;48.216;12.396;2023-08-20T09:18:38;32.00;45.80
70366;DHT22;57787;48.216;12.396;2023-08-20T09:21:07;31.90;42.10
70366;DHT22;57787;48.216;12.396;2023-08-20T09:23:36;31.60;42.20
70366;DHT22;57787;48.216;12.396;2023-08-20T09:26:04;31.30;43.60
70366;DHT22;57787;48.216;12.396;2023-08-20T09:28:41;31.30;45.40
70366;DHT22;57787;48.216;12.396;2023-08-20T09:31:09;31.30;45.00
70366;DHT22;57787;48.216;12.396;2023-08-20T09:36:13;31.80;45.00
70366;DHT22;57787;48.216;12.396;2023-08-20T09:38:40;32.00;42.90
70366;DHT22;57787;48.216;12.396;2023-08-20T09:41:08;32.00;43.20
70366;DHT22;57787;48.216;12.396;2023-08-20T09:43:37;32.20;43.30
70366;DHT22;57787;48.216;12.396;2023-08-20T09:46:05;32.30;46.00
70366;DHT22;57787;48.216;12.396;2023-08-20T09:48:35;32.50;43.90
70366;DHT22;57787;48.216;12.396;2023-08-20T09:51:05;32.60;43.70
70366;DHT22;57787;48.216;12.396;2023-08-20T09:53:37;32.70;44.10
70366;DHT22;57787;48.216;12.396;2023-08-20T09:56:19;32.70;43.70
70366;DHT22;57787;48.216;12.396;2023-08-20T09:58:49;32.80;45.10
70366;DHT22;57787;48.216;12.396;2023-08-20T10:01:16;32.80;43.00
70366;DHT22;57787;48.216;12.396;2023-08-20T10:03:43;33.00;45.00
70366;DHT22;57787;48.216;12.396;2023-08-20T10:06:11;33.10;45.00
70366;DHT22;57787;48.216;12.396;2023-08-20T10:08:38;33.20;43.70
70366;DHT22;57787;48.216;12.396;2023-08-20T10:11:04;33.20;42.10
70366;DHT22;57787;48.216;12.396;2023-08-20T10:13:31;33.10;41.40
70366;DHT22;57787;48.216;12.396;2023-08-20T10:16:01;33.00;43.10
70366;DHT22;57787;48.216;12.396;2023-08-20T10:18:28;33.00;43.60
70366;DHT22;57787;48.216;12.396;2023-08-20T10:20:57;32.90;39.70
70366;DHT22;57787;48.216;12.396;2023-08-20T10:23:29;32.70;41.10
70366;DHT22;57787;48.216;12.396;2023-08-20T10:26:06;32.50;40.60
70366;DHT22;57787;48.216;12.396;2023-08-20T10:28:35;32.70;41.00
70366;DHT22;57787;48.216;12.396;2023-08-20T10:33:29;32.80;42.20
70366;DHT22;57787;48.216;12.396;2023-08-20T10:35:56;32.80;43.00
70366;DHT22;57787;48.216;12.396;2023-08-20T10:38:26;32.90;40.40
70366;DHT22;57787;48.216;12.396;2023-08-20T10:40:57;32.90;40.40
70366;DHT22;57787;48.216;12.396;2023-08-20T10:43:33;32.90;41.30
70366;DHT22;57787;48.216;12.396;2023-08-20T10:48:39;32.90;41.50
70366;DHT22;57787;48.216;12.396;2023-08-20T10:51:10;33.00;40.70
70366;DHT22;57787;48.216;12.396;2023-08-20T10:53:37;33.20;39.80
70366;DHT22;57787;48.216;12.396;2023-08-20T10:56:10;33.10;39.80
70366;DHT22;57787;48.216;12.396;2023-08-20T10:58:38;33.30;41.30
70366;DHT22;57787;48.216;12.396;2023-08-20T11:01:12;33.30;42.10
70366;DHT22;57787;48.216;12.396;2023-08-20T11:03:41;33.30;41.20
70366;DHT22;57787;48.216;12.396;2023-08-20T11:06:08;33.30;41.80
70366;DHT22;57787;48.216;12.396;2023-08-20T11:08:35;33.40;43.40
70366;DHT22;57787;48.216;12.396;2023-08-20T11:11:04;33.60;42.60
70366;DHT22;57787;48.216;12.396;2023-08-20T11:13:33;33.70;41.00
70366;DHT22;57787;48.216;12.396;2023-08-20T11:16:01;33.80;40.50
70366;DHT22;57787;48.216;12.396;2023-08-20T11:18:29;33.80;39.30
70366;DHT22;57787;48.216;12.396;2023-08-20T11:20:58;33.80;40.80
70366;DHT22;57787;48.216;12.396;2023-08-20T11:23:25;33.80;39.00
70366;DHT22;57787;48.216;12.396;2023-08-20T11:25:53;33.70;38.80
70366;DHT22;57787;48.216;12.396;2023-08-20T11:28:20;33.80;39.30
70366;DHT22;57787;48.216;12.396;2023-08-20T11:30:48;33.90;39.60
70366;DHT22;57787;48.216;12.396;2023-08-20T11:33:16;33.80;38.90
70366;DHT22;57787;48.216;12.396;2023-08-20T11:35:44;33.80;39.00
70366;DHT22;57787;48.216;12.396;2023-08-20T11:38:11;33.80;38.90
70366;DHT22;57787;48.216;12.396;2023-08-20T11:40:38;33.90;39.90
70366;DHT22;57787;48.216;12.396;2023-08-20T11:43:05;34.00;38.80
70366;DHT22;57787;48.216;12.396;2023-08-20T11:45:32;34.20;40.10
70366;DHT22;57787;48.216;12.396;2023-08-20T11:48:02;34.30;40.60
70366;DHT22;57787;48.216;12.396;2023-08-20T11:50:31;34.30;39.60
70366;DHT22;57787;48.216;12.396;2023-08-20T11:52:58;34.30;40.50
70366;DHT22;57787;48.216;12.396;2023-08-20T11:55:29;34.20;39.50
70366;DHT22;57787;48.216;12.396;2023-08-20T11:57:57;34.30;40.70
70366;DHT22;57787;48.216;12.396;2023-08-20T12:00:27;34.20;36.50
70366;DHT22;57787;48.216;12.396;2023-08-20T12:02:55;34.20;36.90
70366;DHT22;57787;48.216;12.396;2023-08-20T12:05:26;34.10;37.30
70366;DHT22;57787;48.216;12.396;2023-08-20T12:07:56;34.30;40.60
70366;DHT22;57787;48.216;12.396;2023-08-20T12:10:25;34.30;39.70
70366;DHT22;57787;48.216;12.396;2023-08-20T12:12:52;34.30;41.60
70366;DHT22;57787;48.216;12.396;2023-08-20T12:15:20;34.40;37.60
70366;DHT22;57787;48.216;12.396;2023-08-20T12:20:27;34.10;34.90
70366;DHT22;57787;48.216;12.396;2023-08-20T12:22:56;34.10;35.80
70366;DHT22;57787;48.216;12.396;2023-08-20T12:25:23;34.20;36.50
70366;DHT22;57787;48.216;12.396;2023-08-20T12:27:54;34.20;36.90
70366;DHT22;57787;48.216;12.396;2023-08-20T12:30:21;34.30;38.60
70366;DHT22;57787;48.216;12.396;2023-08-20T12:32:48;34.50;38.10
70366;DHT22;57787;48.216;12.396;2023-08-20T12:35:15;34.50;35.40
70366;DHT22;57787;48.216;12.396;2023-08-20T12:37:42;34.60;35.00
70366;DHT22;57787;48.216;12.396;2023-08-20T12:40:11;34.60;36.90
70366;DHT22;57787;48.216;12.396;2023-08-20T12:42:43;34.60;35.40
70366;DHT22;57787;48.216;12.396;2023-08-20T12:45:10;34.50;37.60
70366;DHT22;57787;48.216;12.396;2023-08-20T12:47:39;34.50;36.80
70366;DHT22;57787;48.216;12.396;2023-08-20T12:50:06;34.50;35.90
70366;DHT22;57787;48.216;12.396;2023-08-20T12:52:33;34.40;37.10
70366;DHT22;57787;48.216;12.396;2023-08-20T12:55:00;34.40;37.90
70366;DHT22;57787;48.216;12.396;2023-08-20T12:57:26;34.40;37.40
70366;DHT22;57787;48.216;12.396;2023-08-20T12:59:54;34.40;35.00
70366;DHT22;57787;48.216;12.396;2023-08-20T13:02:21;34.30;34.30
70366;DHT22;57787;48.216;12.396;2023-08-20T13:04:48;34.30;36.20
70366;DHT22;57787;48.216;12.396;2023-08-20T13:07:16;34.40;36.90
70366;DHT22;57787;48.216;12.396;2023-08-20T13:09:45;34.40;40.00
70366;DHT22;57787;48.216;12.396;2023-08-20T13:12:12;34.50;36.70
70366;DHT22;57787;48.216;12.396;2023-08-20T13:14:40;34.30;36.70
70366;DHT22;57787;48.216;12.396;2023-08-20T13:17:08;34.30;35.90
70366;DHT22;57787;48.216;12.396;2023-08-20T13:19:35;34.40;37.30
70366;DHT22;57787;48.216;12.396;2023-08-20T13:22:02;34.40;37.60
70366;DHT22;57787;48.216;12.396;2023-08-20T13:24:29;34.40;37.30
70366;DHT22;57787;48.216;12.396;2023-08-20T13:26:56;34.30;36.00
70366;DHT22;57787;48.216;12.396;2023-08-20T13:29:23;34.20;35.50
70366;DHT22;57787;48.216;12.396;2023-08-20T13:31:50;34.20;35.80
70366;DHT22;57787;48.216;12.396;2023-08-20T13:34:18;34.20;36.20
70366;DHT22;57787;48.216;12.396;2023-08-20T13:36:45;33.90;37.20
70366;DHT22;57787;48.216;12.396;2023-08-20T13:39:13;33.90;39.10
70366;DHT22;57787;48.216;12.396;2023-08-20T13:41:40;34.00;39.20
70366;DHT22;57787;48.216;12.396;2023-08-20T13:44:08;34.10;37.80
70366;DHT22;57787;48.216;12.396;2023-08-20T13:46:35;34.10;36.30
70366;DHT22;57787;48.216;12.396;2023-08-20T13:49:02;34.00;36.30
70366;DHT22;57787;48.216;12.396;2023-08-20T13:51:31;34.00;33.70
70366;DHT22;57787;48.216;12.396;2023-08-20T13:53:59;34.00;35.10
70366;DHT22;57787;48.216;12.396;2023-08-20T13:56:26;34.10;34.50
70366;DHT22;57787;48.216;12.396;2023-08-20T13:58:53;34.10;35.40
70366;DHT22;57787;48.216;12.396;2023-08-20T14:01:20;34.10;36.90
70366;DHT22;57787;48.216;12.396;2023-08-20T14:03:47;34.00;38.60
70366;DHT22;57787;48.216;12.396;2023-08-20T14:06:14;33.80;36.20
70366;DHT22;57787;48.216;12.396;2023-08-20T14:08:46;33.80;36.50
70366;DHT22;57787;48.216;12.396;2023-08-20T14:11:14;33.80;36.80
70366;DHT22;57787;48.216;12.396;2023-08-20T14:13:42;33.90;38.30
70366;DHT22;57787;48.216;12.396;2023-08-20T14:16:09;34.00;38.00
70366;DHT22;57787;48.216;12.396;2023-08-20T14:18:36;33.90;36.70
70366;DHT22;57787;48.216;12.396;2023-08-20T14:21:04;33.90;36.40
70366;DHT22;57787;48.216;12.396;2023-08-20T14:23:32;33.90;36.90
70366;DHT22;57787;48.216;12.396;2023-08-20T14:25:59;33.70;36.10
70366;DHT22;57787;48.216;12.396;2023-08-20T14:28:25;33.60;36.40
70366;DHT22;57787;48.216;12.396;2023-08-20T14:30:52;33.60;37.20
70366;DHT22;57787;48.216;12.396;2023-08-20T14:33:21;33.60;35.80
70366;DHT22;57787;48.216;12.396;2023-08-20T14:35:48;33.50;36.40
70366;DHT22;57787;48.216;12.396;2023-08-20T14:38:15;33.40;36.70
70366;DHT22;57787;48.216;12.396;2023-08-20T14:40:44;33.30;36.20
70366;DHT22;57787;48.216;12.396;2023-08-20T14:43:10;33.30;36.50
70366;DHT22;57787;48.216;12.396;2023-08-20T14:45:37;33.30;36.90
70366;DHT22;57787;48.216;12.396;2023-08-20T14:48:04;33.30;37.20
70366;DHT22;57787;48.216;12.396;2023-08-20T14:50:32;33.30;35.50
70366;DHT22;57787;48.216;12.396;2023-08-20T14:52:59;33.20;36.30
70366;DHT22;57787;48.216;12.396;2023-08-20T14:55:26;33.20;35.80
70366;DHT22;57787;48.216;12.396;2023-08-20T14:57:53;33.10;36.50
70366;DHT22;57787;48.216;12.396;2023-08-20T15:00:21;33.10;37.10
70366;DHT22;57787;48.216;12.396;2023-08-20T15:02:49;33.00;36.20
70366;DHT22;57787;48.216;12.396;2023-08-20T15:05:16;33.00;37.20
70366;DHT22;57787;48.216;12.396;2023-08-20T15:07:43;32.90;36.60
70366;DHT22;57787;48.216;12.396;2023-08-20T15:10:10;32.90;37.20
70366;DHT22;57787;48.216;12.396;2023-08-20T15:12:39;32.80;36.90
70366;DHT22;57787;48.216;12.396;2023-08-20T15:15:06;32.80;37.30
70366;DHT22;57787;48.216;12.396;2023-08-20T15:17:35;32.80;37.40
70366;DHT22;57787;48.216;12.396;2023-08-20T15:20:03;32.80;37.40
70366;DHT22;57787;48.216;12.396;2023-08-20T15:22:36;32.80;37.80
70366;DHT22;57787;48.216;12.396;2023-08-20T15:25:03;32.70;37.80
70366;DHT22;57787;48.216;12.396;2023-08-20T15:27:31;32.60;35.90
70366;DHT22;57787;48.216;12.396;2023-08-20T15:29:59;32.60;36.40
70366;DHT22;57787;48.216;12.396;2023-08-20T15:35:08;32.50;37.30
70366;DHT22;57787;48.216;12.396;2023-08-20T15:37:37;32.50;36.90
70366;DHT22;57787;48.216;12.396;2023-08-20T15:40:06;32.50;36.30
70366;DHT22;57787;48.216;12.396;2023-08-20T15:42:39;32.40;36.40
70366;DHT22;57787;48.216;12.396;2023-08-20T15:45:06;32.40;36.50
70366;DHT22;57787;48.216;12.396;2023-08-20T15:47:33;32.30;36.20
70366;DHT22;57787;48.216;12.396;2023-08-20T15:50:01;32.30;36.70
70366;DHT22;57787;48.216;12.396;2023-08-20T15:52:28;32.30;36.30